Time;durP1;ratioP1;P1;durP2;ratioP2;P2;SDS_P1;SDS_P2;PMS_P1;PMS_P2;Temp;Humidity;BMP_temperature;BMP_pressure;BME280_temperature;BME280_humidity;BME280_pressure;Samples;Min_cycle;Max_cycle;Signal;HPM_P1;HPM_P2
2023/03/11 00:01:55;;;;;;;9.27;2.78;;;;;;;;;;5051347;28;20060;-75
2023/03/11 00:04:26;;;;;;;5.10;2.40;;;;;;;;;;5068743;28;20522;-78
2023/03/11 00:06:58;;;;;;;8.93;3.47;;;;;;;;;;5052120;28;20071;-75
2023/03/11 00:09:31;;;;;;;7.00;2.90;;;;;;;;;;5070060;28;20052;-74
2023/03/11 00:12:05;;;;;;;11.05;2.55;;;;;;;;;;5069151;28;20473;-74
2023/03/11 00:14:35;;;;;;;6.50;2.65;;;;;;;;;;5070293;28;20052;-74
2023/03/11 00:17:07;;;;;;;11.38;3.35;;;;;;;;;;5069700;28;20051;-72
2023/03/11 00:19:40;;;;;;;8.25;2.70;;;;;;;;;;5069829;28;20048;-73
2023/03/11 00:22:10;;;;;;;4.43;2.33;;;;;;;;;;5069285;28;20048;-74
2023/03/11 00:24:40;;;;;;;6.68;2.70;;;;;;;;;;5069043;28;20499;-74
2023/03/11 00:27:10;;;;;;;9.68;2.80;;;;;;;;;;5067817;28;20045;-72
2023/03/11 00:29:41;;;;;;;5.00;2.35;;;;;;;;;;5069108;28;20044;-74
2023/03/11 00:32:12;;;;;;;7.07;2.72;;;;;;;;;;5069525;28;20521;-71
2023/03/11 00:34:42;;;;;;;6.82;2.92;;;;;;;;;;5069963;28;20049;-74
2023/03/11 00:37:12;;;;;;;7.43;3.00;;;;;;;;;;5069186;28;20045;-75
2023/03/11 00:39:44;;;;;;;16.25;2.88;;;;;;;;;;5069234;28;20053;-72
2023/03/11 00:42:16;;;;;;;9.90;2.80;;;;;;;;;;5068149;28;20048;-72
2023/03/11 00:44:48;;;;;;;8.65;3.45;;;;;;;;;;5068573;28;20053;-73
2023/03/11 00:47:18;;;;;;;5.65;2.88;;;;;;;;;;5068474;28;20075;-73
2023/03/11 00:49:49;;;;;;;8.38;2.97;;;;;;;;;;5068841;28;20053;-74
2023/03/11 00:52:20;;;;;;;6.40;2.75;;;;;;;;;;5049820;28;20064;-73
2023/03/11 00:54:50;;;;;;;6.03;2.38;;;;;;;;;;5068795;28;20086;-74
2023/03/11 00:57:21;;;;;;;8.35;3.30;;;;;;;;;;5068168;28;20055;-74
2023/03/11 00:59:53;;;;;;;5.90;2.70;;;;;;;;;;5069186;28;20036;-71
2023/03/11 01:02:25;;;;;;;5.93;2.97;;;;;;;;;;5053478;28;20047;-72
2023/03/11 01:04:56;;;;;;;9.00;2.35;;;;;;;;;;5050758;28;20079;-73
2023/03/11 01:07:26;;;;;;;8.68;3.45;;;;;;;;;;5068345;28;20075;-75
2023/03/11 01:09:57;;;;;;;6.95;2.40;;;;;;;;;;5068194;28;20504;-73
2023/03/11 01:12:30;;;;;;;4.50;2.80;;;;;;;;;;5050069;28;20412;-73
2023/03/11 01:15:02;;;;;;;8.45;2.80;;;;;;;;;;5049873;28;20391;-73
2023/03/11 01:17:33;;;;;;;5.28;2.70;;;;;;;;;;5048760;28;20630;-73
2023/03/11 01:20:06;;;;;;;7.57;3.25;;;;;;;;;;5049123;28;20044;-73
2023/03/11 01:22:37;;;;;;;7.35;2.97;;;;;;;;;;5048876;28;20052;-74
2023/03/11 01:25:10;;;;;;;4.97;3.00;;;;;;;;;;5049321;28;20052;-74
2023/03/11 01:27:40;;;;;;;6.90;3.00;;;;;;;;;;5066572;28;20055;-73
2023/03/11 01:30:15;;;;;;;4.57;2.85;;;;;;;;;;5067199;28;20040;-74
2023/03/11 01:32:46;;;;;;;5.63;2.63;;;;;;;;;;5069117;28;20055;-76
2023/03/11 01:35:19;;;;;;;3.45;2.58;;;;;;;;;;5068086;28;20503;-75
2023/03/11 01:37:49;;;;;;;9.95;3.00;;;;;;;;;;5050612;28;20511;-74
2023/03/11 01:40:30;;;;;;;6.20;2.42;;;;;;;;;;5049690;28;20057;-72
2023/03/11 01:43:27;;;;;;;5.88;3.13;;;;;;;;;;5049599;28;20052;-74
2023/03/11 01:45:57;;;;;;;7.13;3.10;;;;;;;;;;5049225;28;20078;-74
2023/03/11 01:48:28;;;;;;;7.45;3.38;;;;;;;;;;5066842;28;20049;-74
2023/03/11 01:50:59;;;;;;;7.15;2.80;;;;;;;;;;5050294;28;20060;-73
2023/03/11 01:53:29;;;;;;;3.90;2.63;;;;;;;;;;5049929;28;20056;-73
2023/03/11 01:56:02;;;;;;;6.40;3.28;;;;;;;;;;5049181;28;20450;-73
2023/03/11 01:58:36;;;;;;;11.30;4.07;;;;;;;;;;5049425;28;20048;-75
2023/03/11 02:01:07;;;;;;;5.70;2.95;;;;;;;;;;5067692;28;20055;-74
2023/03/11 02:03:40;;;;;;;5.53;3.50;;;;;;;;;;5049458;28;20075;-75
2023/03/11 02:06:17;;;;;;;4.10;2.85;;;;;;;;;;5048864;28;20419;-75
2023/03/11 02:08:48;;;;;;;3.40;3.03;;;;;;;;;;5049098;28;20048;-72
2023/03/11 02:11:24;;;;;;;5.30;2.80;;;;;;;;;;5048970;28;20056;-74
2023/03/11 02:14:00;;;;;;;5.03;2.67;;;;;;;;;;5049133;28;20052;-74
2023/03/11 02:16:31;;;;;;;7.63;3.10;;;;;;;;;;5049303;28;20522;-74
2023/03/11 02:19:31;;;;;;;5.53;2.88;;;;;;;;;;5065098;28;20053;-74
2023/03/11 02:22:03;;;;;;;4.80;3.13;;;;;;;;;;5035265;28;20442;-74
2023/03/11 02:24:50;;;;;;;7.68;3.33;;;;;;;;;;5065025;28;20048;-72
2023/03/11 02:27:22;;;;;;;6.28;3.45;;;;;;;;;;5064818;28;20052;-74
2023/03/11 02:29:55;;;;;;;6.95;2.63;;;;;;;;;;5048589;28;20044;-75
2023/03/11 02:32:27;;;;;;;6.63;3.45;;;;;;;;;;5066843;28;20048;-75
2023/03/11 02:34:58;;;;;;;4.05;2.95;;;;;;;;;;5048734;28;20056;-73
2023/03/11 02:37:30;;;;;;;7.00;3.55;;;;;;;;;;5048209;28;20542;-76
2023/03/11 02:40:23;;;;;;;6.40;2.70;;;;;;;;;;5049181;28;20071;-74
2023/03/11 02:43:04;;;;;;;7.35;2.90;;;;;;;;;;5048811;28;20056;-71
2023/03/11 02:45:38;;;;;;;5.35;3.13;;;;;;;;;;5048699;28;20048;-73
2023/03/11 02:48:11;;;;;;;9.18;3.88;;;;;;;;;;5048888;28;20059;-71
2023/03/11 02:50:41;;;;;;;7.25;3.85;;;;;;;;;;5047671;28;20040;-75
2023/03/11 02:53:11;;;;;;;6.45;3.88;;;;;;;;;;5067073;28;20043;-72
2023/03/11 02:55:42;;;;;;;6.30;3.90;;;;;;;;;;5048495;28;20064;-73
2023/03/11 02:58:12;;;;;;;6.45;3.15;;;;;;;;;;5047983;28;20426;-74
2023/03/11 03:00:43;;;;;;;6.35;3.85;;;;;;;;;;5048158;28;20052;-74
2023/03/11 03:03:15;;;;;;;5.72;3.08;;;;;;;;;;5047798;28;20052;-76
2023/03/11 03:05:45;;;;;;;6.35;3.40;;;;;;;;;;5047918;28;20060;-72
2023/03/11 03:08:17;;;;;;;8.65;4.03;;;;;;;;;;5066800;28;20048;-74
2023/03/11 03:10:48;;;;;;;8.13;3.85;;;;;;;;;;5032599;28;20049;-74
2023/03/11 03:13:18;;;;;;;10.70;4.40;;;;;;;;;;5066682;28;20067;-73
2023/03/11 03:15:48;;;;;;;7.65;3.45;;;;;;;;;;5047707;28;20057;-75
2023/03/11 03:18:18;;;;;;;9.95;4.30;;;;;;;;;;5048712;28;20044;-72
2023/03/11 03:20:50;;;;;;;8.60;4.10;;;;;;;;;;5048095;28;20057;-71
2023/03/11 03:23:21;;;;;;;7.40;4.97;;;;;;;;;;5048180;28;20055;-73
2023/03/11 03:25:51;;;;;;;5.30;3.90;;;;;;;;;;5048205;28;20057;-74
2023/03/11 03:28:21;;;;;;;8.05;4.07;;;;;;;;;;5048421;28;20060;-72
2023/03/11 03:30:52;;;;;;;9.10;4.40;;;;;;;;;;5066970;28;20052;-74
2023/03/11 03:33:23;;;;;;;7.13;3.55;;;;;;;;;;5048208;28;20056;-74
2023/03/11 03:35:53;;;;;;;7.05;3.90;;;;;;;;;;5065782;28;20044;-73
2023/03/11 03:38:27;;;;;;;7.53;3.65;;;;;;;;;;5047179;28;20538;-76
2023/03/11 03:40:58;;;;;;;9.65;4.10;;;;;;;;;;5047270;28;20431;-74
2023/03/11 03:43:31;;;;;;;5.15;3.90;;;;;;;;;;5048128;28;20538;-72
2023/03/11 03:46:04;;;;;;;7.97;3.92;;;;;;;;;;5047769;28;20060;-74
2023/03/11 03:48:40;;;;;;;6.60;4.70;;;;;;;;;;5047405;28;20044;-74
2023/03/11 03:51:14;;;;;;;6.95;4.45;;;;;;;;;;5048101;28;20052;-72
2023/03/11 03:54:07;;;;;;;9.45;4.45;;;;;;;;;;5061151;28;20065;-74
2023/03/11 03:56:38;;;;;;;10.43;4.75;;;;;;;;;;5047331;28;20511;-74
2023/03/11 03:59:13;;;;;;;7.90;4.53;;;;;;;;;;5047380;28;20620;-74
2023/03/11 04:01:50;;;;;;;8.10;5.20;;;;;;;;;;5047115;28;20068;-73
2023/03/11 04:04:22;;;;;;;8.65;5.25;;;;;;;;;;5047884;28;20064;-74
2023/03/11 04:06:53;;;;;;;13.75;4.53;;;;;;;;;;5047645;28;20445;-75
2023/03/11 04:09:26;;;;;;;11.77;5.20;;;;;;;;;;5064124;28;20549;-72
2023/03/11 04:11:57;;;;;;;7.97;4.75;;;;;;;;;;5047113;28;20057;-73
2023/03/11 04:14:27;;;;;;;9.32;4.90;;;;;;;;;;5047048;28;20063;-74
2023/03/11 04:17:00;;;;;;;8.75;4.60;;;;;;;;;;5047490;28;20446;-72
2023/03/11 04:19:32;;;;;;;9.90;4.53;;;;;;;;;;5050624;28;20419;-75
2023/03/11 04:22:04;;;;;;;6.32;4.57;;;;;;;;;;5067824;28;20056;-71
2023/03/11 04:24:35;;;;;;;8.88;5.20;;;;;;;;;;5069334;28;20048;-74
2023/03/11 04:27:05;;;;;;;7.97;4.75;;;;;;;;;;5051556;28;20594;-72
2023/03/11 04:29:35;;;;;;;10.35;4.95;;;;;;;;;;5050275;28;20613;-73
2023/03/11 04:32:07;;;;;;;16.05;4.93;;;;;;;;;;5069364;28;20047;-74
2023/03/11 04:34:40;;;;;;;15.80;5.68;;;;;;;;;;5050529;28;20059;-73
2023/03/11 04:37:14;;;;;;;12.50;4.85;;;;;;;;;;5050760;28;20056;-73
2023/03/11 04:39:45;;;;;;;7.63;3.65;;;;;;;;;;5050291;28;20056;-71
2023/03/11 04:42:17;;;;;;;20.17;4.45;;;;;;;;;;5068000;28;20056;-74
2023/03/11 04:44:50;;;;;;;10.98;5.80;;;;;;;;;;5051148;28;20055;-72
2023/03/11 04:47:21;;;;;;;7.65;5.63;;;;;;;;;;5050642;28;20056;-74
2023/03/11 04:49:51;;;;;;;6.78;5.40;;;;;;;;;;5067463;28;20518;-73
2023/03/11 04:52:23;;;;;;;9.82;4.80;;;;;;;;;;5068736;28;20048;-74
2023/03/11 04:54:54;;;;;;;7.10;5.75;;;;;;;;;;5050738;28;20063;-73
2023/03/11 04:57:25;;;;;;;11.70;5.00;;;;;;;;;;5050330;28;20594;-75
2023/03/11 04:59:56;;;;;;;8.02;5.47;;;;;;;;;;5049999;28;20065;-73
2023/03/11 05:02:27;;;;;;;11.38;5.50;;;;;;;;;;5049787;28;20628;-73
2023/03/11 05:05:01;;;;;;;13.20;6.30;;;;;;;;;;5050259;28;20056;-72
2023/03/11 05:07:33;;;;;;;9.90;6.22;;;;;;;;;;5069181;28;20056;-72
2023/03/11 05:10:04;;;;;;;10.60;5.85;;;;;;;;;;5050505;28;20056;-73
2023/03/11 05:12:37;;;;;;;6.65;5.20;;;;;;;;;;5049873;28;20044;-71
2023/03/11 05:15:08;;;;;;;9.82;5.43;;;;;;;;;;5050121;28;20049;-76
2023/03/11 05:17:39;;;;;;;9.75;5.50;;;;;;;;;;5049403;28;20067;-75
2023/03/11 05:20:10;;;;;;;11.23;5.47;;;;;;;;;;5049206;28;20060;-75
2023/03/11 05:22:42;;;;;;;7.88;4.78;;;;;;;;;;5067736;28;20044;-74
2023/03/11 05:25:14;;;;;;;9.60;6.22;;;;;;;;;;5050045;28;20052;-73
2023/03/11 05:27:45;;;;;;;10.30;5.55;;;;;;;;;;5068281;28;20056;-74
2023/03/11 05:30:16;;;;;;;10.07;5.50;;;;;;;;;;5049314;28;20057;-74
2023/03/11 05:32:49;;;;;;;10.88;5.28;;;;;;;;;;5050303;28;20040;-72
2023/03/11 05:35:20;;;;;;;10.45;4.90;;;;;;;;;;5066590;28;20045;-76
2023/03/11 05:37:53;;;;;;;9.57;5.45;;;;;;;;;;5049110;28;20059;-73
2023/03/11 05:40:28;;;;;;;12.02;5.05;;;;;;;;;;5049455;28;20059;-74
2023/03/11 05:42:58;;;;;;;12.35;5.40;;;;;;;;;;5067851;28;20032;-74
2023/03/11 05:45:32;;;;;;;10.27;6.15;;;;;;;;;;5049517;28;20079;-72
2023/03/11 05:48:03;;;;;;;12.45;5.80;;;;;;;;;;5067323;28;20044;-72
2023/03/11 05:50:34;;;;;;;11.13;5.65;;;;;;;;;;5049580;28;20052;-73
2023/03/11 05:53:05;;;;;;;9.40;5.68;;;;;;;;;;5049396;28;20093;-73
2023/03/11 05:55:36;;;;;;;14.77;5.22;;;;;;;;;;5049339;28;20052;-71
2023/03/11 05:58:06;;;;;;;9.60;6.03;;;;;;;;;;5067206;28;20059;-71
2023/03/11 06:00:36;;;;;;;10.45;5.28;;;;;;;;;;5065985;28;20515;-73
2023/03/11 06:03:06;;;;;;;13.15;6.15;;;;;;;;;;5068119;28;20442;-71
2023/03/11 06:05:36;;;;;;;8.18;5.63;;;;;;;;;;5049427;28;20535;-73
2023/03/11 06:08:07;;;;;;;12.07;4.75;;;;;;;;;;5049471;28;20063;-71
2023/03/11 06:10:38;;;;;;;7.60;4.95;;;;;;;;;;5048212;28;20662;-72
2023/03/11 06:13:08;;;;;;;8.98;4.93;;;;;;;;;;5049287;28;20052;-74
2023/03/11 06:15:47;;;;;;;8.27;5.72;;;;;;;;;;5049498;28;20048;-74
2023/03/11 06:18:19;;;;;;;12.02;5.90;;;;;;;;;;5048982;28;20048;-73
2023/03/11 06:20:50;;;;;;;7.20;5.38;;;;;;;;;;5066988;28;20052;-72
2023/03/11 06:23:21;;;;;;;13.35;5.40;;;;;;;;;;5066442;28;20049;-72
2023/03/11 06:26:05;;;;;;;12.02;5.28;;;;;;;;;;5048364;28;20511;-72
2023/03/11 06:28:42;;;;;;;9.90;5.85;;;;;;;;;;5066377;28;20057;-73
2023/03/11 06:31:25;;;;;;;10.20;6.97;;;;;;;;;;5067460;28;20052;-74
2023/03/11 06:34:02;;;;;;;7.57;5.30;;;;;;;;;;5064930;28;20057;-73
2023/03/11 06:36:33;;;;;;;11.77;6.82;;;;;;;;;;5048442;28;20507;-71
2023/03/11 06:39:05;;;;;;;11.20;6.63;;;;;;;;;;5066692;28;20491;-74
2023/03/11 06:41:38;;;;;;;9.25;6.32;;;;;;;;;;5064308;28;20053;-73
2023/03/11 06:44:11;;;;;;;16.55;6.03;;;;;;;;;;5047972;28;20063;-71
2023/03/11 06:46:42;;;;;;;12.95;6.32;;;;;;;;;;5048420;28;20052;-72
2023/03/11 06:49:14;;;;;;;10.02;5.93;;;;;;;;;;5048381;28;20523;-73
2023/03/11 06:51:45;;;;;;;16.60;6.45;;;;;;;;;;5048126;28;20142;-72
2023/03/11 06:54:16;;;;;;;28.63;8.32;;;;;;;;;;5049140;28;20052;-73
2023/03/11 06:56:46;;;;;;;8.45;6.47;;;;;;;;;;5048696;28;20052;-73
2023/03/11 06:59:16;;;;;;;54.00;7.00;;;;;;;;;;5048894;28;20044;-71
2023/03/11 07:01:46;;;;;;;52.22;9.32;;;;;;;;;;5064165;28;20427;-73
2023/03/11 07:04:20;;;;;;;47.95;7.30;;;;;;;;;;5066519;28;20045;-72
2023/03/11 07:06:51;;;;;;;67.95;8.02;;;;;;;;;;5048195;28;20048;-72
2023/03/11 07:09:24;;;;;;;74.35;8.85;;;;;;;;;;5047952;28;20056;-73
2023/03/11 07:11:55;;;;;;;89.70;10.05;;;;;;;;;;5048197;28;20079;-72
2023/03/11 07:14:31;;;;;;;25.25;6.85;;;;;;;;;;5064221;28;20059;-73
2023/03/11 07:17:01;;;;;;;80.43;7.03;;;;;;;;;;5066008;28;20056;-72
2023/03/11 07:19:36;;;;;;;82.60;8.07;;;;;;;;;;5048176;28;20078;-74
2023/03/11 07:22:08;;;;;;;44.03;7.07;;;;;;;;;;5066461;28;20040;-74
2023/03/11 07:24:38;;;;;;;79.50;8.75;;;;;;;;;;5066529;28;20589;-72
2023/03/11 07:27:09;;;;;;;26.17;7.25;;;;;;;;;;5049243;28;20044;-72
2023/03/11 07:29:39;;;;;;;86.50;7.90;;;;;;;;;;5066671;28;20045;-71
2023/03/11 07:32:10;;;;;;;78.40;8.32;;;;;;;;;;5066250;28;20543;-72
2023/03/11 07:34:41;;;;;;;37.95;7.10;;;;;;;;;;5065749;28;20045;-72
2023/03/11 07:37:11;;;;;;;18.63;7.10;;;;;;;;;;5066658;28;20040;-71
2023/03/11 07:39:42;;;;;;;32.58;7.60;;;;;;;;;;5066087;28;20056;-72
2023/03/11 07:42:13;;;;;;;34.67;7.50;;;;;;;;;;5066035;28;20048;-71
2023/03/11 07:44:44;;;;;;;39.35;10.13;;;;;;;;;;5066281;28;20056;-71
2023/03/11 07:47:14;;;;;;;39.92;6.90;;;;;;;;;;5066194;28;20380;-72
2023/03/11 07:49:44;;;;;;;17.73;6.90;;;;;;;;;;5066136;28;20048;-74
2023/03/11 07:52:15;;;;;;;16.30;6.68;;;;;;;;;;5067262;28;20060;-71
2023/03/11 07:54:48;;;;;;;10.77;7.05;;;;;;;;;;5069518;28;20052;-74
2023/03/11 07:57:18;;;;;;;11.73;6.28;;;;;;;;;;5069569;28;20051;-73
2023/03/11 07:59:47;;;;;;;9.77;6.57;;;;;;;;;;5069625;28;20048;-71
2023/03/11 08:02:18;;;;;;;16.95;7.15;;;;;;;;;;5069826;28;20060;-71
2023/03/11 08:04:48;;;;;;;9.25;6.18;;;;;;;;;;5069612;28;20048;-71
2023/03/11 08:07:20;;;;;;;12.75;7.10;;;;;;;;;;5069345;28;20048;-73
2023/03/11 08:09:50;;;;;;;20.58;8.13;;;;;;;;;;5069830;28;20047;-71
2023/03/11 08:12:20;;;;;;;33.17;7.90;;;;;;;;;;5069184;28;20535;-71
2023/03/11 08:14:50;;;;;;;71.63;8.20;;;;;;;;;;5069502;28;20059;-73
2023/03/11 08:17:20;;;;;;;53.45;8.40;;;;;;;;;;5051959;28;20055;-70
2023/03/11 08:19:51;;;;;;;67.05;7.43;;;;;;;;;;5051248;28;20048;-73
2023/03/11 08:22:22;;;;;;;81.75;6.18;;;;;;;;;;5069297;28;20403;-73
2023/03/11 08:24:53;;;;;;;107.82;7.55;;;;;;;;;;5069286;28;20040;-70
2023/03/11 08:27:26;;;;;;;118.40;8.35;;;;;;;;;;5069111;28;20056;-71
2023/03/11 08:29:58;;;;;;;157.32;9.38;;;;;;;;;;5069065;28;20040;-72
2023/03/11 08:32:30;;;;;;;127.32;8.10;;;;;;;;;;5069616;28;20411;-72
2023/03/11 08:35:00;;;;;;;141.23;9.27;;;;;;;;;;5069874;28;20504;-74
2023/03/11 08:37:32;;;;;;;116.38;8.23;;;;;;;;;;5068717;28;20119;-72
2023/03/11 08:40:02;;;;;;;73.25;6.75;;;;;;;;;;5068376;28;20044;-72
2023/03/11 08:42:33;;;;;;;104.63;6.85;;;;;;;;;;5068900;28;20395;-72
2023/03/11 08:45:05;;;;;;;115.50;7.18;;;;;;;;;;5050116;28;20057;-71
2023/03/11 08:47:37;;;;;;;131.20;7.93;;;;;;;;;;5068515;28;20041;-71
2023/03/11 08:50:13;;;;;;;104.45;7.72;;;;;;;;;;5066215;28;20419;-71
2023/03/11 08:52:44;;;;;;;57.33;6.63;;;;;;;;;;5067186;28;20068;-72
2023/03/11 08:55:22;;;;;;;68.82;6.95;;;;;;;;;;5049925;28;20056;-71
2023/03/11 08:57:52;;;;;;;38.22;6.25;;;;;;;;;;5068867;28;20044;-73
2023/03/11 09:00:23;;;;;;;38.55;5.68;;;;;;;;;;5069090;28;20040;-72
2023/03/11 09:02:54;;;;;;;41.38;7.07;;;;;;;;;;5068502;28;20056;-71
2023/03/11 09:05:24;;;;;;;39.67;5.18;;;;;;;;;;5067578;28;20106;-71
2023/03/11 09:07:55;;;;;;;28.08;5.57;;;;;;;;;;5068145;28;20044;-74
2023/03/11 09:10:26;;;;;;;41.20;6.38;;;;;;;;;;5068768;28;20049;-73
2023/03/11 09:12:56;;;;;;;27.88;4.97;;;;;;;;;;5068639;28;20107;-73
2023/03/11 09:15:26;;;;;;;31.10;6.97;;;;;;;;;;5067376;28;20503;-71
2023/03/11 09:17:58;;;;;;;33.22;6.07;;;;;;;;;;5068086;28;20045;-71
2023/03/11 09:20:29;;;;;;;23.30;5.72;;;;;;;;;;5067849;28;20056;-73
2023/03/11 09:23:01;;;;;;;99.28;6.75;;;;;;;;;;5050072;28;20048;-73
2023/03/11 09:25:31;;;;;;;32.65;6.10;;;;;;;;;;5068468;28;20362;-71
2023/03/11 09:28:01;;;;;;;25.35;6.38;;;;;;;;;;5068086;28;20400;-72
2023/03/11 09:30:32;;;;;;;50.63;6.45;;;;;;;;;;5068178;28;20044;-73
2023/03/11 09:33:03;;;;;;;54.33;6.70;;;;;;;;;;5067781;28;20052;-72
2023/03/11 09:35:37;;;;;;;15.68;6.55;;;;;;;;;;5085864;28;20071;-73
2023/03/11 09:38:08;;;;;;;29.40;5.97;;;;;;;;;;5067980;28;20055;-73
2023/03/11 09:40:52;;;;;;;20.58;6.20;;;;;;;;;;5083223;28;20043;-73
2023/03/11 09:43:39;;;;;;;20.40;5.57;;;;;;;;;;5085210;28;20044;-73
2023/03/11 09:46:44;;;;;;;14.85;6.32;;;;;;;;;;5087056;28;20044;-73
2023/03/11 09:49:20;;;;;;;22.88;5.70;;;;;;;;;;5087359;28;20036;-73
2023/03/11 09:52:09;;;;;;;20.13;6.07;;;;;;;;;;5069925;28;20048;-71
2023/03/11 09:54:44;;;;;;;14.70;5.88;;;;;;;;;;5087681;28;20410;-72
2023/03/11 09:57:22;;;;;;;19.45;6.25;;;;;;;;;;5087350;28;20407;-73
2023/03/11 09:59:55;;;;;;;40.00;6.82;;;;;;;;;;5088125;28;20048;-73
2023/03/11 10:02:26;;;;;;;33.80;6.72;;;;;;;;;;5087046;28;20510;-72
2023/03/11 10:04:57;;;;;;;35.30;6.30;;;;;;;;;;5087656;28;20055;-71
2023/03/11 10:07:33;;;;;;;20.00;6.80;;;;;;;;;;5087642;28;20048;-72
2023/03/11 10:10:04;;;;;;;23.30;6.22;;;;;;;;;;5087379;28;20051;-70
2023/03/11 10:12:44;;;;;;;16.58;5.72;;;;;;;;;;5086919;28;20040;-72
2023/03/11 10:15:35;;;;;;;16.00;6.40;;;;;;;;;;5086859;28;20075;-73
2023/03/11 10:18:30;;;;;;;15.23;6.78;;;;;;;;;;5087128;28;20423;-73
2023/03/11 10:21:20;;;;;;;17.95;5.32;;;;;;;;;;5086935;28;20052;-70
2023/03/11 10:24:02;;;;;;;6.85;5.70;;;;;;;;;;5069739;28;20056;-71
2023/03/11 10:26:46;;;;;;;42.75;6.28;;;;;;;;;;5087099;28;20055;-70
2023/03/11 10:29:54;;;;;;;26.77;6.25;;;;;;;;;;5084897;28;20056;-72
2023/03/11 10:32:39;;;;;;;23.85;5.05;;;;;;;;;;5024503;28;20049;-70
2023/03/11 10:35:18;;;;;;;57.35;5.43;;;;;;;;;;5081365;28;20121;-72
2023/03/11 10:37:59;;;;;;;92.95;5.55;;;;;;;;;;5066671;28;20075;-73
2023/03/11 10:40:33;;;;;;;65.15;5.63;;;;;;;;;;5086104;28;20098;-72
2023/03/11 10:43:21;;;;;;;12.93;6.07;;;;;;;;;;5086801;28;20498;-74
2023/03/11 10:45:53;;;;;;;80.47;7.38;;;;;;;;;;5086722;28;20040;-70
2023/03/11 10:48:26;;;;;;;31.52;5.22;;;;;;;;;;5086768;28;20494;-75
2023/03/11 10:51:10;;;;;;;70.30;5.80;;;;;;;;;;5086897;28;20067;-74
2023/03/11 10:53:47;;;;;;;20.70;5.35;;;;;;;;;;5086613;28;20510;-73
2023/03/11 10:56:31;;;;;;;19.65;5.43;;;;;;;;;;5086651;28;20054;-72
2023/03/11 10:59:29;;;;;;;10.07;4.88;;;;;;;;;;5085563;28;20139;-72
2023/03/11 11:02:18;;;;;;;12.02;4.15;;;;;;;;;;5079200;28;20399;-72
2023/03/11 11:05:00;;;;;;;7.60;3.97;;;;;;;;;;5085978;28;20051;-73
2023/03/11 11:07:40;;;;;;;12.15;4.50;;;;;;;;;;5086804;28;20397;-73
2023/03/11 11:10:22;;;;;;;6.30;3.72;;;;;;;;;;5087065;28;20052;-70
2023/03/11 11:12:54;;;;;;;11.80;4.57;;;;;;;;;;5086792;28;20040;-73
2023/03/11 11:15:36;;;;;;;6.57;4.70;;;;;;;;;;5086884;28;20068;-71
2023/03/11 11:18:23;;;;;;;;;;;;;;;;;;5086960;28;20052;-74
2023/03/11 11:21:16;;;;;;;6.60;4.28;;;;;;;;;;5086292;28;19923;-75
2023/03/11 11:24:11;;;;;;;11.07;5.50;;;;;;;;;;5086641;28;20048;-73
2023/03/11 11:27:01;;;;;;;5.20;4.13;;;;;;;;;;5071735;28;20052;-75
2023/03/11 11:29:33;;;;;;;7.68;3.70;;;;;;;;;;5090408;28;20067;-72
2023/03/11 11:32:35;;;;;;;8.77;3.80;;;;;;;;;;5090798;28;20048;-76
2023/03/11 11:35:11;;;;;;;12.93;4.45;;;;;;;;;;5090736;28;20040;-75
2023/03/11 11:37:45;;;;;;;;;;;;;;;;;;5090609;28;20062;-73
2023/03/11 11:40:15;;;;;;;5.18;3.40;;;;;;;;;;5090552;28;20410;-75
2023/03/11 11:42:55;;;;;;;12.38;3.97;;;;;;;;;;5090404;28;20498;-75
2023/03/11 11:45:38;;;;;;;4.80;3.20;;;;;;;;;;5090694;28;20051;-76
2023/03/11 11:48:26;;;;;;;6.15;2.80;;;;;;;;;;5090389;28;20566;-72
2023/03/11 11:51:02;;;;;;;5.35;3.15;;;;;;;;;;5089219;28;20506;-78
2023/03/11 11:53:45;;;;;;;8.10;2.78;;;;;;;;;;5090514;28;20051;-73
2023/03/11 11:56:15;;;;;;;16.27;2.88;;;;;;;;;;5090009;28;20047;-75
2023/03/11 11:58:47;;;;;;;4.03;2.67;;;;;;;;;;5090240;28;20052;-75
2023/03/11 12:01:26;;;;;;;10.27;2.33;;;;;;;;;;5090143;28;20044;-76
2023/03/11 12:04:03;;;;;;;5.15;2.80;;;;;;;;;;5089990;28;20397;-75
2023/03/11 12:06:48;;;;;;;14.27;2.33;;;;;;;;;;5090464;28;20048;-80
2023/03/11 12:09:58;;;;;;;6.90;2.15;;;;;;;;;;5090231;28;20051;-72
2023/03/11 12:13:11;;;;;;;8.30;2.30;;;;;;;;;;5090681;28;20044;-75
2023/03/11 12:16:02;;;;;;;9.70;2.40;;;;;;;;;;5071052;28;20063;-74
2023/03/11 12:18:39;;;;;;;8.80;2.15;;;;;;;;;;5089956;28;20040;-75
2023/03/11 12:21:41;;;;;;;7.13;2.60;;;;;;;;;;5089981;28;20044;-73
2023/03/11 12:24:12;;;;;;;12.35;2.20;;;;;;;;;;5054528;28;20048;-71
2023/03/11 12:26:45;;;;;;;14.15;2.25;;;;;;;;;;5089697;28;20048;-75
2023/03/11 12:29:34;;;;;;;7.00;1.92;;;;;;;;;;5090180;28;20048;-80
2023/03/11 12:32:07;;;;;;;7.20;1.85;;;;;;;;;;5070060;28;20052;-75
2023/03/11 12:34:40;;;;;;;2.65;1.70;;;;;;;;;;5090846;28;20062;-76
2023/03/11 12:37:15;;;;;;;3.05;1.55;;;;;;;;;;5090946;28;20044;-77
2023/03/11 12:39:46;;;;;;;2.85;1.70;;;;;;;;;;5089104;28;20063;-75
2023/03/11 12:42:20;;;;;;;7.63;1.80;;;;;;;;;;5089726;28;20056;-79
2023/03/11 12:44:52;;;;;;;2.08;1.35;;;;;;;;;;5071346;28;20044;-72
2023/03/11 12:47:27;;;;;;;4.30;1.80;;;;;;;;;;5090197;28;20409;-74
2023/03/11 12:50:38;;;;;;;3.45;1.38;;;;;;;;;;5104684;28;20392;-70
2023/03/11 12:53:18;;;;;;;2.88;1.80;;;;;;;;;;5088657;28;20040;-76
2023/03/11 12:56:10;;;;;;;3.03;1.45;;;;;;;;;;5089178;28;20032;-71
2023/03/11 12:59:21;;;;;;;3.65;1.38;;;;;;;;;;5089349;28;20039;-76
2023/03/11 13:02:30;;;;;;;4.72;1.40;;;;;;;;;;5087660;28;20051;-76
2023/03/11 13:05:39;;;;;;;1.73;1.52;;;;;;;;;;5088630;28;20047;-74
2023/03/11 13:08:47;;;;;;;7.35;1.58;;;;;;;;;;5088022;28;20506;-72
2023/03/11 13:11:43;;;;;;;3.58;1.80;;;;;;;;;;5087186;28;20063;-73
2023/03/11 13:14:35;;;;;;;7.15;1.60;;;;;;;;;;5087419;28;20048;-74
2023/03/11 13:17:26;;;;;;;4.93;1.83;;;;;;;;;;5081047;28;20837;-77
2023/03/11 13:19:57;;;;;;;3.95;2.03;;;;;;;;;;5084374;28;20051;-75
2023/03/11 13:22:44;;;;;;;2.15;1.63;;;;;;;;;;5086952;28;20526;-74
2023/03/11 13:25:36;;;;;;;5.70;1.75;;;;;;;;;;5086619;28;20387;-74
2023/03/11 13:28:08;;;;;;;2.78;1.80;;;;;;;;;;5088526;28;20060;-75
2023/03/11 13:30:44;;;;;;;2.25;2.03;;;;;;;;;;5088382;28;20401;-77
2023/03/11 13:33:53;;;;;;;2.63;1.65;;;;;;;;;;5087406;28;20044;-74
2023/03/11 13:36:35;;;;;;;2.30;1.88;;;;;;;;;;5087672;28;20051;-74
2023/03/11 13:39:11;;;;;;;7.13;2.03;;;;;;;;;;5088087;28;20398;-75
2023/03/11 13:41:44;;;;;;;6.93;2.10;;;;;;;;;;5088120;28;20052;-73
2023/03/11 13:44:32;;;;;;;1.92;1.50;;;;;;;;;;5088045;28;20056;-73
2023/03/11 13:47:15;;;;;;;4.25;1.95;;;;;;;;;;5087712;28;20048;-76
2023/03/11 13:50:08;;;;;;;3.95;1.75;;;;;;;;;;5088161;28;20048;-73
2023/03/11 13:52:52;;;;;;;2.65;2.25;;;;;;;;;;5087977;28;20059;-75
2023/03/11 13:55:34;;;;;;;3.08;2.20;;;;;;;;;;5087134;28;20043;-75
2023/03/11 13:58:26;;;;;;;4.70;2.10;;;;;;;;;;5088035;28;20059;-74
2023/03/11 14:01:02;;;;;;;5.78;2.10;;;;;;;;;;5087740;28;20051;-74
2023/03/11 14:03:39;;;;;;;3.45;2.72;;;;;;;;;;5087908;28;20044;-73
2023/03/11 14:06:18;;;;;;;4.05;2.17;;;;;;;;;;5087795;28;20399;-74
2023/03/11 14:08:56;;;;;;;2.70;2.50;;;;;;;;;;5069169;28;20048;-76
2023/03/11 14:11:29;;;;;;;4.55;2.45;;;;;;;;;;5086556;28;20588;-72
2023/03/11 14:14:00;;;;;;;7.28;2.70;;;;;;;;;;5086802;28;20044;-76
2023/03/11 14:16:42;;;;;;;4.45;2.40;;;;;;;;;;5086358;28;20044;-73
2023/03/11 14:19:16;;;;;;;3.03;2.47;;;;;;;;;;5087030;28;20055;-75
2023/03/11 14:21:53;;;;;;;3.70;3.05;;;;;;;;;;5086964;28;20056;-73
2023/03/11 14:24:29;;;;;;;3.60;2.58;;;;;;;;;;5086915;28;20044;-74
2023/03/11 14:27:03;;;;;;;3.40;2.50;;;;;;;;;;5086569;28;20048;-73
2023/03/11 14:29:39;;;;;;;4.10;2.85;;;;;;;;;;5086618;28;20043;-73
2023/03/11 14:32:27;;;;;;;4.47;2.50;;;;;;;;;;5085959;28;20059;-75
2023/03/11 14:35:17;;;;;;;4.25;2.30;;;;;;;;;;5067621;28;20055;-75
2023/03/11 14:37:47;;;;;;;3.28;2.17;;;;;;;;;;5085736;28;20533;-75
2023/03/11 14:40:33;;;;;;;5.70;2.47;;;;;;;;;;5086398;28;20048;-74
2023/03/11 14:43:06;;;;;;;4.82;2.30;;;;;;;;;;5086699;28;20040;-73
2023/03/11 14:45:40;;;;;;;2.83;2.08;;;;;;;;;;5086551;28;20043;-74
2023/03/11 14:48:13;;;;;;;;;;;;;;;;;;5086058;28;20036;-75
2023/03/11 14:50:48;;;;;;;3.25;1.90;;;;;;;;;;5086462;28;20396;-75
2023/03/11 14:53:36;;;;;;;4.75;2.00;;;;;;;;;;5086941;28;20048;-73
2023/03/11 14:56:19;;;;;;;2.65;2.10;;;;;;;;;;5085892;28;20858;-75
2023/03/11 14:59:15;;;;;;;3.70;2.10;;;;;;;;;;5085260;28;20048;-74
2023/03/11 15:01:47;;;;;;;5.45;2.35;;;;;;;;;;5082668;28;20426;-72
2023/03/11 15:04:32;;;;;;;4.53;2.10;;;;;;;;;;5086352;28;20048;-70
2023/03/11 15:07:04;;;;;;;3.78;1.90;;;;;;;;;;5074180;28;20681;-71
2023/03/11 15:09:39;;;;;;;3.20;2.10;;;;;;;;;;5082804;28;20063;-74
2023/03/11 15:12:33;;;;;;;2.83;1.92;;;;;;;;;;5086229;28;20489;-78
2023/03/11 15:15:22;;;;;;;4.95;2.00;;;;;;;;;;5087113;28;20044;-72
2023/03/11 15:17:55;;;;;;;3.35;2.50;;;;;;;;;;5086621;28;20521;-74
2023/03/11 15:20:35;;;;;;;2.75;1.85;;;;;;;;;;5087042;28;20055;-73
2023/03/11 15:23:16;;;;;;;2.28;1.63;;;;;;;;;;5086751;28;20055;-73
2023/03/11 15:25:49;;;;;;;;;;;;;;;;;;5068334;28;20533;-74
2023/03/11 15:28:30;;;;;;;2.50;1.83;;;;;;;;;;5067721;28;19928;-73
2023/03/11 15:31:19;;;;;;;3.33;1.92;;;;;;;;;;5085815;28;20052;-73